Time;durP1;ratioP1;P1;durP2;ratioP2;P2;SDS_P1;SDS_P2;PMS_P1;PMS_P2;Temp;Humidity;BMP_temperature;BMP_pressure;BME280_temperature;BME280_humidity;BME280_pressure;Samples;Min_cycle;Max_cycle;Signal;HPM_P1;HPM_P2
2023/08/24 00:01:36;;;;;;;1.13;0.80;;;15.60;99.90;;;;;;5055422;28;20106;-67
2023/08/24 00:04:02;;;;;;;1.42;0.90;;;15.60;99.90;;;;;;5078598;28;20036;-66
2023/08/24 00:06:28;;;;;;;1.38;0.98;;;15.50;99.90;;;;;;5036612;28;20076;-67
2023/08/24 00:08:54;;;;;;;2.72;1.20;;;15.50;99.90;;;;;;5070258;28;20436;-67
2023/08/24 00:11:20;;;;;;;1.80;1.40;;;15.50;99.90;;;;;;5055276;28;20036;-67
2023/08/24 00:13:52;;;;;;;2.65;1.50;;;15.50;99.90;;;;;;5070205;28;20510;-67
2023/08/24 00:16:19;;;;;;;2.78;1.33;;;15.50;99.90;;;;;;5069822;28;20119;-67
2023/08/24 00:18:45;;;;;;;4.43;1.60;;;15.50;99.90;;;;;;5059101;28;20099;-67
2023/08/24 00:21:13;;;;;;;2.13;1.20;;;15.40;99.90;;;;;;5065841;28;20080;-67
2023/08/24 00:23:40;;;;;;;3.30;0.93;;;15.40;99.90;;;;;;5052023;28;20159;-67
2023/08/24 00:26:06;;;;;;;2.75;1.05;;;15.40;99.90;;;;;;5073616;28;20051;-67
2023/08/24 00:28:31;;;;;;;3.33;1.50;;;15.30;99.90;;;;;;5054982;28;20056;-67
2023/08/24 00:30:57;;;;;;;2.47;1.20;;;15.30;99.90;;;;;;5070311;28;20093;-67
2023/08/24 00:33:24;;;;;;;3.85;1.55;;;15.30;99.90;;;;;;5069445;28;20063;-66
2023/08/24 00:35:49;;;;;;;8.40;1.83;;;15.20;99.90;;;;;;5044168;28;20127;-66
2023/08/24 00:38:15;;;;;;;4.53;1.90;;;15.20;99.90;;;;;;5070500;28;20172;-67
2023/08/24 00:40:44;;;;;;;3.38;1.88;;;15.20;99.90;;;;;;5084788;28;20067;-67
2023/08/24 00:43:10;;;;;;;4.63;2.20;;;15.20;99.90;;;;;;5070349;28;20076;-67
2023/08/24 00:45:36;;;;;;;5.90;1.85;;;15.20;99.90;;;;;;5068750;28;20041;-66
2023/08/24 00:48:02;;;;;;;2.55;1.90;;;15.10;99.90;;;;;;5069202;28;20092;-66
2023/08/24 00:50:28;;;;;;;5.00;2.15;;;15.20;99.90;;;;;;5069096;28;20041;-66
2023/08/24 00:52:54;;;;;;;10.63;2.22;;;15.10;99.90;;;;;;5069012;28;20139;-66
2023/08/24 00:55:21;;;;;;;5.95;2.33;;;15.10;99.90;;;;;;5069967;28;20542;-66
2023/08/24 00:57:48;;;;;;;3.83;2.10;;;15.20;99.90;;;;;;5067613;28;20063;-66
2023/08/24 01:00:14;;;;;;;2.63;1.92;;;15.20;99.90;;;;;;5069909;28;20052;-66
2023/08/24 01:02:40;;;;;;;1.80;1.70;;;15.20;99.90;;;;;;5068270;28;20093;-66
2023/08/24 01:05:07;;;;;;;1.95;1.85;;;15.10;99.90;;;;;;5050304;28;20049;-66
2023/08/24 01:07:39;;;;;;;2.85;1.95;;;15.20;99.90;;;;;;5032926;28;20048;-66
2023/08/24 01:10:06;;;;;;;2.85;2.10;;;15.20;99.90;;;;;;5058015;28;20121;-66
2023/08/24 01:12:58;;;;;;;5.85;2.10;;;15.20;99.90;;;;;;5048415;28;20823;-66
2023/08/24 01:15:53;;;;;;;2.03;1.83;;;15.20;99.90;;;;;;5068271;28;20033;-66
2023/08/24 01:18:21;;;;;;;4.35;2.20;;;15.20;99.90;;;;;;5068448;28;20816;-66
2023/08/24 01:20:48;;;;;;;3.22;2.40;;;15.20;99.90;;;;;;5069097;28;20072;-66
2023/08/24 01:23:37;;;;;;;5.47;2.20;;;15.20;99.90;;;;;;5068767;28;20059;-66
2023/08/24 01:26:12;;;;;;;5.32;2.22;;;15.20;99.90;;;;;;5048835;28;20064;-66
2023/08/24 01:28:39;;;;;;;3.40;2.15;;;15.20;99.90;;;;;;5067962;28;20048;-66
2023/08/24 01:31:05;;;;;;;6.38;2.03;;;15.20;99.90;;;;;;5050847;28;20649;-66
2023/08/24 01:33:31;;;;;;;2.88;1.90;;;15.20;99.90;;;;;;5068132;28;20056;-66
2023/08/24 01:35:57;;;;;;;5.18;2.35;;;15.10;99.90;;;;;;5068256;28;20084;-66
2023/08/24 01:38:23;;;;;;;6.05;1.92;;;15.10;99.90;;;;;;5068468;28;20113;-67
2023/08/24 01:41:08;;;;;;;2.70;2.00;;;15.20;99.90;;;;;;5067824;28;20051;-66
2023/08/24 01:43:36;;;;;;;3.00;1.70;;;15.20;99.90;;;;;;5084600;28;20098;-66
2023/08/24 01:46:07;;;;;;;4.72;1.98;;;15.20;99.90;;;;;;5049543;28;20048;-66
2023/08/24 01:48:34;;;;;;;5.32;2.25;;;15.20;99.90;;;;;;5067456;28;20044;-66
2023/08/24 01:51:01;;;;;;;5.35;1.98;;;15.20;99.90;;;;;;5067123;28;20056;-66
2023/08/24 01:53:33;;;;;;;9.93;3.05;;;15.20;99.90;;;;;;5067804;28;20045;-67
2023/08/24 01:55:58;;;;;;;3.50;1.88;;;15.10;99.90;;;;;;5068571;28;20094;-66
2023/08/24 01:58:24;;;;;;;4.07;1.73;;;15.20;99.90;;;;;;5066880;28;20044;-66
2023/08/24 02:00:50;;;;;;;2.97;1.95;;;15.10;99.90;;;;;;5083990;28;20044;-66
2023/08/24 02:03:16;;;;;;;3.45;2.08;;;15.10;99.90;;;;;;5066563;28;20072;-67
2023/08/24 02:05:41;;;;;;;4.55;2.30;;;15.10;99.90;;;;;;5054047;28;20087;-66
2023/08/24 02:08:07;;;;;;;5.97;2.10;;;15.10;99.90;;;;;;5066626;28;20054;-66
2023/08/24 02:10:33;;;;;;;2.47;2.15;;;15.10;99.90;;;;;;5054345;28;20037;-66
2023/08/24 02:12:59;;;;;;;3.55;2.60;;;15.10;99.90;;;;;;5068017;28;20052;-66
2023/08/24 02:15:24;;;;;;;3.75;1.92;;;15.00;99.90;;;;;;5067116;28;20494;-66
2023/08/24 02:17:50;;;;;;;3.53;2.08;;;15.00;99.90;;;;;;5068013;28;20028;-66
2023/08/24 02:20:16;;;;;;;5.85;1.60;;;15.00;99.90;;;;;;5066077;28;20065;-66
2023/08/24 02:22:41;;;;;;;2.28;1.65;;;15.00;99.90;;;;;;5068057;28;20049;-66
2023/08/24 02:25:09;;;;;;;2.60;2.00;;;15.00;99.90;;;;;;5048396;28;20052;-66
2023/08/24 02:27:34;;;;;;;3.22;1.70;;;14.90;99.90;;;;;;5067533;28;20398;-66
2023/08/24 02:30:00;;;;;;;1.80;1.70;;;14.90;99.90;;;;;;5066870;28;20048;-66
2023/08/24 02:32:26;;;;;;;7.00;1.58;;;14.90;99.90;;;;;;5067261;28;20055;-66
2023/08/24 02:34:52;;;;;;;3.78;2.00;;;14.80;99.90;;;;;;5067832;28;20470;-66
2023/08/24 02:37:17;;;;;;;5.25;1.88;;;14.80;99.90;;;;;;5066111;28;20566;-66
2023/08/24 02:39:43;;;;;;;5.47;1.60;;;14.80;99.90;;;;;;5016552;28;20045;-66
2023/08/24 02:42:09;;;;;;;4.25;1.90;;;14.80;99.90;;;;;;5066353;28;20055;-66
2023/08/24 02:44:35;;;;;;;4.65;2.35;;;14.80;99.90;;;;;;5066936;28;20427;-66
2023/08/24 02:47:01;;;;;;;2.67;2.03;;;14.80;99.90;;;;;;5065551;28;20261;-66
2023/08/24 02:49:27;;;;;;;5.45;2.40;;;14.80;99.90;;;;;;5071893;28;20136;-66
2023/08/24 02:51:52;;;;;;;2.55;1.80;;;14.90;99.90;;;;;;5050026;28;20131;-66
2023/08/24 02:54:19;;;;;;;4.93;2.17;;;14.90;99.90;;;;;;5081829;28;20045;-66
2023/08/24 02:56:45;;;;;;;8.05;2.25;;;14.90;99.90;;;;;;5066911;28;20049;-66
2023/08/24 02:59:11;;;;;;;10.60;1.98;;;14.90;99.90;;;;;;5047409;28;20201;-66
2023/08/24 03:01:38;;;;;;;4.20;2.00;;;14.90;99.90;;;;;;5048889;28;20159;-66
2023/08/24 03:04:05;;;;;;;4.53;2.50;;;15.00;99.90;;;;;;5065253;28;20049;-66
2023/08/24 03:06:31;;;;;;;3.10;2.25;;;15.00;99.90;;;;;;5078396;28;20126;-66
2023/08/24 03:08:56;;;;;;;7.60;2.55;;;15.00;99.90;;;;;;5047299;28;20040;-66
2023/08/24 03:11:22;;;;;;;4.53;2.75;;;15.00;99.90;;;;;;5053159;28;20238;-66
2023/08/24 03:13:48;;;;;;;5.68;2.50;;;15.00;99.90;;;;;;5032175;28;20044;-66
2023/08/24 03:16:13;;;;;;;3.63;2.30;;;15.10;99.90;;;;;;5047116;28;20151;-66
2023/08/24 03:18:40;;;;;;;4.60;2.05;;;15.10;99.90;;;;;;5048899;28;20529;-66
2023/08/24 03:21:06;;;;;;;3.15;2.08;;;15.10;99.90;;;;;;5065062;28;20402;-66
2023/08/24 03:23:32;;;;;;;4.20;2.20;;;15.10;99.90;;;;;;5066624;28;20506;-66
2023/08/24 03:25:58;;;;;;;6.35;2.28;;;15.20;99.90;;;;;;5047491;28;20055;-66
2023/08/24 03:28:24;;;;;;;2.95;2.03;;;15.20;99.90;;;;;;5065540;28;20421;-66
2023/08/24 03:30:52;;;;;;;6.80;2.50;;;15.20;99.90;;;;;;5048306;28;20074;-66
2023/08/24 03:33:19;;;;;;;4.00;2.45;;;15.20;99.90;;;;;;5047137;28;20053;-66
2023/08/24 03:35:45;;;;;;;2.28;2.10;;;15.20;99.90;;;;;;5066597;28;20048;-66
2023/08/24 03:38:11;;;;;;;5.53;2.40;;;15.20;99.90;;;;;;5046864;28;20135;-66
2023/08/24 03:40:36;;;;;;;2.40;1.90;;;15.20;99.90;;;;;;5065926;28;20127;-66
2023/08/24 03:43:03;;;;;;;3.75;2.25;;;15.20;99.90;;;;;;5057058;28;20482;-66
2023/08/24 03:45:29;;;;;;;7.85;2.45;;;15.30;99.90;;;;;;5065967;28;20041;-66
2023/08/24 03:47:55;;;;;;;2.05;1.85;;;15.30;99.90;;;;;;5066073;28;20053;-66
2023/08/24 03:50:22;;;;;;;3.22;1.98;;;15.30;99.90;;;;;;5065366;28;20051;-66
2023/08/24 03:52:49;;;;;;;4.80;2.10;;;15.20;99.90;;;;;;5066469;28;20048;-66
2023/08/24 03:55:15;;;;;;;8.52;2.17;;;15.20;99.90;;;;;;5064215;28;20037;-66
2023/08/24 03:57:41;;;;;;;5.93;2.10;;;15.10;99.90;;;;;;5066827;28;20037;-66
2023/08/24 04:00:11;;;;;;;2.88;2.00;;;15.20;99.90;;;;;;5080655;28;20087;-66
2023/08/24 04:02:38;;;;;;;3.03;1.98;;;15.20;99.90;;;;;;5048332;28;20051;-66
2023/08/24 04:05:04;;;;;;;6.10;2.15;;;15.10;99.90;;;;;;5065180;28;20076;-66
2023/08/24 04:07:31;;;;;;;7.18;2.40;;;15.20;99.90;;;;;;5065389;28;20087;-66
2023/08/24 04:09:56;;;;;;;8.13;2.40;;;15.20;99.90;;;;;;5056686;28;20087;-66
2023/08/24 04:12:22;;;;;;;4.68;2.47;;;15.20;99.90;;;;;;5060110;28;20040;-66
2023/08/24 04:14:48;;;;;;;4.95;2.28;;;15.20;99.90;;;;;;5048293;28;20529;-66
2023/08/24 04:17:14;;;;;;;2.60;1.67;;;15.20;99.90;;;;;;5064600;28;20049;-66
2023/08/24 04:19:40;;;;;;;2.42;1.80;;;15.20;99.90;;;;;;5047759;28;20512;-66
2023/08/24 04:22:06;;;;;;;6.00;2.20;;;15.30;99.90;;;;;;5064757;28;20051;-66
2023/08/24 04:24:31;;;;;;;5.35;2.40;;;15.30;99.90;;;;;;5047632;28;20392;-66
2023/08/24 04:26:57;;;;;;;3.83;2.17;;;15.20;99.90;;;;;;5065490;28;20307;-66
2023/08/24 04:29:23;;;;;;;5.10;2.40;;;15.30;99.90;;;;;;5064767;28;20564;-66
2023/08/24 04:31:48;;;;;;;7.90;2.40;;;15.30;99.90;;;;;;5047770;28;20044;-66
2023/08/24 04:34:14;;;;;;;6.63;2.75;;;15.30;99.90;;;;;;5064240;28;20048;-66
2023/08/24 04:36:40;;;;;;;6.80;2.90;;;15.30;99.90;;;;;;5065873;28;20475;-66
2023/08/24 04:39:05;;;;;;;5.47;3.05;;;15.30;99.90;;;;;;5057004;28;20079;-66
2023/08/24 04:41:31;;;;;;;3.55;2.65;;;15.30;99.90;;;;;;5079543;28;20041;-66
2023/08/24 04:43:57;;;;;;;5.88;2.63;;;15.30;99.90;;;;;;5078532;28;20189;-66
2023/08/24 04:46:23;;;;;;;8.05;3.60;;;15.30;99.90;;;;;;5050370;28;20509;-66
2023/08/24 04:48:49;;;;;;;7.28;2.65;;;15.30;99.90;;;;;;5083026;28;20383;-66
2023/08/24 04:51:16;;;;;;;5.72;2.70;;;15.30;99.90;;;;;;5050045;28;20051;-66
2023/08/24 04:53:42;;;;;;;3.97;2.55;;;15.30;99.90;;;;;;5051246;28;20055;-66
2023/08/24 04:56:08;;;;;;;4.28;2.80;;;15.30;99.90;;;;;;5049557;28;20049;-66
2023/08/24 04:58:35;;;;;;;4.75;2.70;;;15.30;99.90;;;;;;5069047;28;20032;-66
2023/08/24 05:01:01;;;;;;;3.63;2.85;;;15.30;99.90;;;;;;5067768;28;20119;-66
2023/08/24 05:03:26;;;;;;;6.25;2.83;;;15.30;99.90;;;;;;5050598;28;20687;-66
2023/08/24 05:05:52;;;;;;;4.55;2.83;;;15.30;99.90;;;;;;5068600;28;20101;-66
2023/08/24 05:08:19;;;;;;;3.88;2.47;;;15.30;99.90;;;;;;5050052;28;20094;-66
2023/08/24 05:10:45;;;;;;;5.68;2.80;;;15.20;99.90;;;;;;5065603;28;20056;-66
2023/08/24 05:13:11;;;;;;;3.03;2.35;;;15.30;99.90;;;;;;5075879;28;20203;-66
2023/08/24 05:15:36;;;;;;;5.10;2.47;;;15.20;99.90;;;;;;5068392;28;20184;-66
2023/08/24 05:18:02;;;;;;;4.30;2.50;;;15.30;99.90;;;;;;5082885;28;20044;-66
2023/08/24 05:20:28;;;;;;;4.78;2.58;;;15.30;99.90;;;;;;5068183;28;20499;-66
2023/08/24 05:22:54;;;;;;;6.25;2.10;;;15.30;99.90;;;;;;5049787;28;20409;-66
2023/08/24 05:25:22;;;;;;;5.38;2.70;;;15.30;99.90;;;;;;5049980;28;20068;-66
2023/08/24 05:27:48;;;;;;;6.80;2.38;;;15.40;99.90;;;;;;5068532;28;20139;-66
2023/08/24 05:30:14;;;;;;;5.40;2.47;;;15.40;99.90;;;;;;5049642;28;20235;-68
2023/08/24 05:32:39;;;;;;;2.60;2.40;;;15.50;99.90;;;;;;5068150;28;20347;-66
2023/08/24 05:35:06;;;;;;;3.97;2.72;;;15.50;99.90;;;;;;5067200;28;20059;-66
2023/08/24 05:37:32;;;;;;;9.63;2.80;;;15.60;99.90;;;;;;5068206;28;20410;-65
2023/08/24 05:39:59;;;;;;;4.25;2.85;;;15.60;99.90;;;;;;5066932;28;20048;-66
2023/08/24 05:42:25;;;;;;;6.43;3.05;;;15.60;99.90;;;;;;5073019;28;20044;-66
2023/08/24 05:44:51;;;;;;;4.25;2.80;;;15.70;99.90;;;;;;5070919;28;20051;-65
2023/08/24 05:47:17;;;;;;;5.55;3.08;;;15.70;99.90;;;;;;5067275;28;20049;-66
2023/08/24 05:49:42;;;;;;;6.68;3.03;;;15.80;99.90;;;;;;5049939;28;20052;-65
2023/08/24 05:52:08;;;;;;;4.57;3.15;;;15.80;99.90;;;;;;5065352;28;20399;-66
2023/08/24 05:54:36;;;;;;;6.28;3.00;;;16.00;99.90;;;;;;5068081;28;20048;-66
2023/08/24 05:57:03;;;;;;;5.47;2.85;;;16.10;99.90;;;;;;5066338;28;20033;-66
2023/08/24 05:59:29;;;;;;;4.10;3.00;;;16.10;99.90;;;;;;5067808;28;20048;-66
2023/08/24 06:01:55;;;;;;;4.85;2.83;;;16.20;99.90;;;;;;5066760;28;20475;-65
2023/08/24 06:04:21;;;;;;;3.30;2.75;;;16.30;99.90;;;;;;5067656;28;20060;-65
2023/08/24 06:06:47;;;;;;;5.53;2.80;;;16.50;99.90;;;;;;5048071;28;20090;-65
2023/08/24 06:09:14;;;;;;;8.32;2.60;;;16.60;99.90;;;;;;5061711;28;20040;-65
2023/08/24 06:11:40;;;;;;;11.82;2.90;;;16.70;99.90;;;;;;5056885;28;20063;-66
2023/08/24 06:14:06;;;;;;;4.80;2.40;;;16.80;99.90;;;;;;5082061;28;20479;-65
2023/08/24 06:16:32;;;;;;;5.13;2.30;;;16.80;99.90;;;;;;5067289;28;20051;-65
2023/08/24 06:18:58;;;;;;;10.05;2.80;;;16.80;99.90;;;;;;5048149;28;20052;-66
2023/08/24 06:21:24;;;;;;;6.53;2.60;;;16.80;99.90;;;;;;5067442;28;20047;-66
2023/08/24 06:23:49;;;;;;;5.03;2.17;;;16.80;99.90;;;;;;5067193;28;20047;-66
2023/08/24 06:26:17;;;;;;;6.22;2.13;;;16.80;99.90;;;;;;5065974;28;20044;-66
2023/08/24 06:28:43;;;;;;;5.07;2.33;;;16.90;99.90;;;;;;5082817;28;20051;-65
2023/08/24 06:31:09;;;;;;;8.45;1.67;;;16.90;99.90;;;;;;5065805;28;20057;-66
2023/08/24 06:33:36;;;;;;;4.00;1.80;;;17.00;99.90;;;;;;5066603;28;20075;-66
2023/08/24 06:36:06;;;;;;;4.60;1.83;;;17.00;99.90;;;;;;5047982;28;20506;-66
2023/08/24 06:38:32;;;;;;;6.70;2.40;;;17.10;99.90;;;;;;5046435;28;20037;-66
2023/08/24 06:40:59;;;;;;;4.03;2.38;;;17.10;99.90;;;;;;5031331;28;20059;-66
2023/08/24 06:43:25;;;;;;;5.90;2.10;;;17.20;99.90;;;;;;5055814;28;20382;-66
2023/08/24 06:45:51;;;;;;;4.10;2.00;;;17.20;99.90;;;;;;5058353;28;20061;-66
2023/08/24 06:48:17;;;;;;;6.78;2.05;;;17.20;99.90;;;;;;5049921;28;20131;-66
2023/08/24 06:50:43;;;;;;;3.67;1.73;;;17.30;99.90;;;;;;5049031;28;20040;-66
2023/08/24 06:53:09;;;;;;;5.70;2.78;;;17.30;99.90;;;;;;5031284;28;20048;-65
2023/08/24 06:55:36;;;;;;;6.85;2.25;;;17.30;99.90;;;;;;5051200;28;20040;-66
2023/08/24 06:58:05;;;;;;;6.97;2.70;;;17.40;99.90;;;;;;5053840;28;20092;-66
2023/08/24 07:00:31;;;;;;;5.75;1.83;;;17.40;99.90;;;;;;5050020;28;20056;-66
2023/08/24 07:02:59;;;;;;;4.85;2.08;;;17.50;99.90;;;;;;5019598;28;20041;-66
2023/08/24 07:05:25;;;;;;;6.15;1.98;;;17.60;99.90;;;;;;5062480;28;20043;-65
2023/08/24 07:07:51;;;;;;;9.15;2.40;;;17.70;99.90;;;;;;5057194;28;20127;-65
2023/08/24 07:10:17;;;;;;;8.65;2.13;;;18.00;99.90;;;;;;5064442;28;20063;-66
2023/08/24 07:12:44;;;;;;;6.03;2.20;;;18.30;99.90;;;;;;5061558;28;20479;-66
2023/08/24 07:15:11;;;;;;;6.80;2.05;;;18.50;99.90;;;;;;5065783;28;20048;-65
2023/08/24 07:17:37;;;;;;;5.25;2.05;;;18.80;99.90;;;;;;5051794;28;20498;-65
2023/08/24 07:20:08;;;;;;;4.25;2.40;;;19.10;99.90;;;;;;5042716;28;20060;-66
2023/08/24 07:22:34;;;;;;;3.58;2.45;;;19.30;99.90;;;;;;5032301;28;20563;-66
2023/08/24 07:25:01;;;;;;;3.83;2.00;;;19.60;99.90;;;;;;5054443;28;20041;-65
2023/08/24 07:27:28;;;;;;;3.63;1.90;;;19.80;99.90;;;;;;5065907;28;20088;-66
2023/08/24 07:29:54;;;;;;;7.38;2.08;;;19.80;99.90;;;;;;5052335;28;20041;-65
2023/08/24 07:32:19;;;;;;;4.15;2.05;;;19.80;99.90;;;;;;5049684;28;20510;-65
2023/08/24 07:34:45;;;;;;;5.00;2.00;;;19.70;99.90;;;;;;5063426;28;20036;-66
2023/08/24 07:37:11;;;;;;;3.35;1.70;;;19.90;99.90;;;;;;5047002;28;20418;-66
2023/08/24 07:39:38;;;;;;;5.35;1.92;;;20.30;99.90;;;;;;5077776;28;20039;-66
2023/08/24 07:42:04;;;;;;;6.38;2.20;;;20.60;99.90;;;;;;5037381;28;20862;-66
2023/08/24 07:44:30;;;;;;;6.63;2.20;;;20.80;99.90;;;;;;5031402;28;20040;-65
2023/08/24 07:46:56;;;;;;;6.50;2.20;;;21.00;99.90;;;;;;5043304;28;20056;-66
2023/08/24 07:49:21;;;;;;;4.93;2.30;;;21.20;99.90;;;;;;5038228;28;20132;-66
2023/08/24 07:51:47;;;;;;;2.08;1.83;;;21.50;99.90;;;;;;5048857;28;20048;-66
2023/08/24 07:54:13;;;;;;;2.60;2.35;;;21.60;99.20;;;;;;5027839;28;20052;-66
2023/08/24 07:56:39;;;;;;;7.78;2.47;;;21.80;99.90;;;;;;5061557;28;20116;-66
2023/08/24 07:59:05;;;;;;;6.18;3.03;;;21.90;99.90;;;;;;5055158;28;20080;-66
2023/08/24 08:01:31;;;;;;;2.75;2.17;;;22.00;99.90;;;;;;5061482;28;20051;-67
2023/08/24 08:03:56;;;;;;;25.27;4.40;;;22.20;99.80;;;;;;5046757;28;20137;-66
2023/08/24 08:06:24;;;;;;;3.17;2.47;;;22.30;99.90;;;;;;5062784;28;20079;-66
2023/08/24 08:08:51;;;;;;;4.35;2.20;;;22.40;99.90;;;;;;5062926;28;20044;-66
2023/08/24 08:11:17;;;;;;;3.05;2.45;;;22.40;96.30;;;;;;5033503;28;20056;-66
2023/08/24 08:13:44;;;;;;;4.13;2.25;;;22.50;93.00;;;;;;5048957;28;20056;-67
2023/08/24 08:16:10;;;;;;;8.30;2.63;;;22.70;92.40;;;;;;5078626;28;20048;-66
2023/08/24 08:18:36;;;;;;;9.55;3.55;;;22.80;93.30;;;;;;5069313;28;20056;-66
2023/08/24 08:21:10;;;;;;;2.63;2.20;;;22.90;91.00;;;;;;5069726;28;20166;-66
2023/08/24 08:23:36;;;;;;;6.40;2.47;;;23.10;91.20;;;;;;5069388;28;20052;-66
2023/08/24 08:26:02;;;;;;;6.50;2.58;;;23.40;95.00;;;;;;5069615;28;20556;-67
2023/08/24 08:28:28;;;;;;;7.75;2.42;;;23.50;75.40;;;;;;5067947;28;20150;-66
2023/08/24 08:30:54;;;;;;;7.55;2.50;;;23.70;75.10;;;;;;5069699;28;20072;-66
2023/08/24 08:33:21;;;;;;;5.88;2.65;;;23.90;74.00;;;;;;5069169;28;20062;-66
2023/08/24 08:35:47;;;;;;;4.93;1.83;;;23.90;62.90;;;;;;5084614;28;20119;-66
2023/08/24 08:38:13;;;;;;;4.20;1.80;;;23.90;56.90;;;;;;5052663;28;20186;-68
2023/08/24 08:40:41;;;;;;;9.65;2.03;;;23.90;45.60;;;;;;5068258;28;20166;-69
2023/08/24 08:43:06;;;;;;;5.68;2.35;;;23.90;33.50;;;;;;5069527;28;20045;-69
2023/08/24 08:45:33;;;;;;;6.07;1.80;;;24.00;22.50;;;;;;5050762;28;20067;-67
2023/08/24 08:48:00;;;;;;;3.72;2.20;;;24.00;17.60;;;;;;5069891;28;20087;-67
2023/08/24 08:50:27;;;;;;;8.57;2.47;;;24.10;24.20;;;;;;5068776;28;20044;-67
2023/08/24 08:52:52;;;;;;;3.42;2.17;;;24.10;32.10;;;;;;5069105;28;20036;-69
2023/08/24 08:55:19;;;;;;;2.47;2.28;;;24.10;24.20;;;;;;5051332;28;20077;-67
2023/08/24 08:57:49;;;;;;;5.22;1.83;;;24.20;20.90;;;;;;5032471;28;20040;-69
2023/08/24 09:00:18;;;;;;;2.78;1.73;;;24.20;9.40;;;;;;5051449;28;20189;-67
2023/08/24 09:02:45;;;;;;;;;;;24.30;8.20;;;;;;5068180;28;20056;-67
2023/08/24 09:05:15;;;;;;;4.40;2.05;;;24.20;3.40;;;;;;5025232;28;19975;-68
2023/08/24 09:07:41;;;;;;;6.03;2.25;;;24.20;1.00;;;;;;5066764;28;20187;-68
2023/08/24 09:10:08;;;;;;;3.13;1.55;;;24.10;1.00;;;;;;5052588;28;20049;-70
2023/08/24 09:12:35;;;;;;;8.52;1.85;;;24.10;7.80;;;;;;5068860;28;20509;-67
2023/08/24 09:15:04;;;;;;;6.78;3.30;;;24.00;6.60;;;;;;5065769;28;20401;-67
2023/08/24 09:17:30;;;;;;;13.52;2.78;;;23.80;9.00;;;;;;5066824;28;20051;-67
2023/08/24 09:19:59;;;;;;;5.43;3.00;;;23.90;18.00;;;;;;5067604;28;20052;-67
2023/08/24 09:22:24;;;;;;;2.92;2.10;;;24.10;12.60;;;;;;5039307;28;20064;-68
2023/08/24 09:24:50;;;;;;;4.10;2.40;;;24.20;8.20;;;;;;5047376;28;20049;-67
2023/08/24 09:27:18;;;;;;;6.68;2.40;;;24.40;8.40;;;;;;5030493;28;20047;-69
2023/08/24 09:29:49;;;;;;;4.45;2.00;;;24.50;1.00;;;;;;5046631;28;20059;-67
2023/08/24 09:32:15;;;;;;;4.95;2.30;;;24.60;1.00;;;;;;5066325;28;20131;-68
2023/08/24 09:34:41;;;;;;;3.30;2.00;;;24.60;1.00;;;;;;5055381;28;20067;-67
2023/08/24 09:37:15;;;;;;;3.15;2.10;;;24.60;1.00;;;;;;5046588;28;20051;-68
2023/08/24 09:39:41;;;;;;;4.80;2.60;;;24.50;1.00;;;;;;5066905;28;20032;-67
2023/08/24 09:42:07;;;;;;;3.13;2.13;;;24.50;1.00;;;;;;5064322;28;20525;-68
2023/08/24 09:44:33;;;;;;;3.65;1.80;;;24.60;1.00;;;;;;5049840;28;20049;-68
2023/08/24 09:46:59;;;;;;;3.25;2.17;;;24.70;1.00;;;;;;5068344;28;20058;-67
2023/08/24 09:49:26;;;;;;;5.88;2.45;;;24.80;1.00;;;;;;5047855;28;20044;-67
2023/08/24 09:51:57;;;;;;;2.72;1.75;;;24.90;1.00;;;;;;5068628;28;20082;-68
2023/08/24 09:54:27;;;;;;;2.97;1.98;;;24.90;1.00;;;;;;5051151;28;20047;-68
2023/08/24 09:56:56;;;;;;;1.70;1.60;;;24.80;1.00;;;;;;5064243;28;20106;-69
2023/08/24 09:59:24;;;;;;;;;;;24.60;1.00;;;;;;5065334;28;20127;-67
2023/08/24 10:01:51;;;;;;;6.17;2.10;;;24.30;1.00;;;;;;5066249;28;20389;-67
2023/08/24 10:04:29;;;;;;;1.77;1.58;;;24.10;1.00;;;;;;5049759;28;20051;-67
2023/08/24 10:07:11;;;;;;;3.78;2.40;;;24.00;1.00;;;;;;5044667;28;20975;-68
2023/08/24 10:09:45;;;;;;;2.35;1.77;;;24.00;1.00;;;;;;5059506;28;20124;-67
2023/08/24 10:12:14;;;;;;;4.35;2.00;;;23.90;1.00;;;;;;5042411;28;20439;-67
2023/08/24 10:14:56;;;;;;;2.63;2.03;;;23.90;1.00;;;;;;5058369;28;20398;-67
2023/08/24 10:17:23;;;;;;;7.00;2.40;;;23.90;1.00;;;;;;5067845;28;20437;-67
2023/08/24 10:19:51;;;;;;;3.72;2.17;;;23.80;1.90;;;;;;5067031;28;20424;-68
2023/08/24 10:22:19;;;;;;;4.75;2.33;;;23.70;5.30;;;;;;5063060;28;20087;-67
2023/08/24 10:24:47;;;;;;;4.13;1.80;;;23.60;4.20;;;;;;5063283;28;20050;-67
2023/08/24 10:27:14;;;;;;;4.38;2.55;;;23.50;6.20;;;;;;5060883;28;20495;-67
2023/08/24 10:29:39;;;;;;;3.88;2.35;;;23.40;13.80;;;;;;5054917;28;20102;-68
2023/08/24 10:32:06;;;;;;;3.13;2.33;;;23.40;15.40;;;;;;5052905;28;20565;-68
2023/08/24 10:34:32;;;;;;;3.25;2.40;;;23.30;15.90;;;;;;5042587;28;20485;-67
2023/08/24 10:37:10;;;;;;;7.68;2.80;;;23.30;16.90;;;;;;5062535;28;20080;-68
2023/08/24 10:39:39;;;;;;;4.60;2.28;;;23.20;14.90;;;;;;5048692;28;20625;-67
2023/08/24 10:42:10;;;;;;;2.70;2.38;;;23.20;21.90;;;;;;5054018;28;20048;-69
2023/08/24 10:44:38;;;;;;;4.15;2.95;;;23.10;22.50;;;;;;5037925;28;20055;-67
2023/08/24 10:47:12;;;;;;;6.45;2.90;;;23.10;21.70;;;;;;5046293;28;20519;-67
2023/08/24 10:49:38;;;;;;;7.20;3.20;;;23.10;28.20;;;;;;5047006;28;20049;-67
2023/08/24 10:52:21;;;;;;;4.50;2.65;;;23.10;26.40;;;;;;5047168;28;20080;-68
2023/08/24 10:54:54;;;;;;;8.25;3.40;;;23.00;25.90;;;;;;5059271;28;20072;-68
2023/08/24 10:57:34;;;;;;;5.47;2.80;;;23.00;35.10;;;;;;5061241;28;20044;-68
2023/08/24 11:00:08;;;;;;;5.30;2.53;;;22.90;32.10;;;;;;5042457;28;20053;-67
2023/08/24 11:02:50;;;;;;;6.40;3.35;;;22.90;34.50;;;;;;5035765;28;20041;-67
2023/08/24 11:05:27;;;;;;;6.78;3.38;;;22.90;34.30;;;;;;5046928;28;20451;-68
2023/08/24 11:07:54;;;;;;;3.95;2.70;;;22.90;34.90;;;;;;5054653;28;20066;-67
2023/08/24 11:10:21;;;;;;;3.00;2.30;;;22.80;41.50;;;;;;5063290;28;20040;-68
2023/08/24 11:13:06;;;;;;;3.08;2.58;;;22.80;41.40;;;;;;5049276;28;20124;-68
2023/08/24 11:15:43;;;;;;;4.30;2.90;;;22.80;45.90;;;;;;5082333;28;20048;-68
2023/08/24 11:18:26;;;;;;;6.03;3.00;;;22.80;49.20;;;;;;5065537;28;20048;-66
2023/08/24 11:21:04;;;;;;;4.20;2.88;;;22.80;47.60;;;;;;5065341;28;20358;-67
2023/08/24 11:23:31;;;;;;;5.22;2.92;;;22.80;48.10;;;;;;5066976;28;20054;-67
2023/08/24 11:25:59;;;;;;;4.65;2.53;;;22.70;48.70;;;;;;5066036;28;20131;-67
2023/08/24 11:28:26;;;;;;;5.55;2.85;;;22.80;50.50;;;;;;5066378;28;20048;-68
2023/08/24 11:30:53;;;;;;;4.60;2.88;;;22.80;53.20;;;;;;5066929;28;20075;-66
2023/08/24 11:33:33;;;;;;;6.55;2.80;;;22.80;56.30;;;;;;5065196;28;20105;-67
2023/08/24 11:36:00;;;;;;;3.97;2.70;;;22.80;55.60;;;;;;5067373;28;20124;-67
2023/08/24 11:38:34;;;;;;;2.58;2.38;;;22.80;56.60;;;;;;5047658;28;20051;-66
2023/08/24 11:41:00;;;;;;;7.35;3.20;;;22.90;64.70;;;;;;5067122;28;20048;-67
2023/08/24 11:43:26;;;;;;;3.70;2.75;;;22.90;65.10;;;;;;5059514;28;20048;-68
2023/08/24 11:45:54;;;;;;;7.82;3.50;;;23.00;62.10;;;;;;5066326;28;20456;-64
2023/08/24 11:48:25;;;;;;;12.77;4.07;;;23.00;62.50;;;;;;5066576;28;20044;-64
2023/08/24 11:50:51;;;;;;;5.10;3.17;;;23.10;67.90;;;;;;5051283;28;20050;-65
2023/08/24 11:53:17;;;;;;;9.57;3.30;;;23.20;65.20;;;;;;5052933;28;20127;-64
2023/08/24 11:55:43;;;;;;;8.48;3.40;;;23.30;68.30;;;;;;5068891;28;20082;-64
2023/08/24 11:58:15;;;;;;;6.32;3.15;;;23.30;58.30;;;;;;5070653;28;20044;-65
2023/08/24 12:00:43;;;;;;;6.47;3.40;;;23.40;57.20;;;;;;5069753;28;20044;-64
2023/08/24 12:03:09;;;;;;;8.77;3.30;;;23.40;51.90;;;;;;5035487;28;20123;-65
2023/08/24 12:05:35;;;;;;;4.93;3.13;;;23.50;41.60;;;;;;5051921;28;20105;-66
2023/08/24 12:08:01;;;;;;;6.05;2.85;;;23.50;28.10;;;;;;5057603;28;20041;-65
2023/08/24 12:10:27;;;;;;;3.53;2.72;;;23.60;24.40;;;;;;5054242;28;20097;-65
2023/08/24 12:13:05;;;;;;;6.05;2.85;;;23.80;26.60;;;;;;5068637;28;20066;-65
2023/08/24 12:15:33;;;;;;;7.38;3.45;;;23.80;24.20;;;;;;5035672;28;20055;-64
2023/08/24 12:18:08;;;;;;;3.97;2.58;;;24.00;17.30;;;;;;5068559;28;20033;-64
2023/08/24 12:20:33;;;;;;;3.38;2.60;;;24.10;20.00;;;;;;5067984;28;20415;-64
2023/08/24 12:23:00;;;;;;;4.05;2.90;;;24.20;21.80;;;;;;5065771;28;20044;-65
2023/08/24 12:25:26;;;;;;;5.10;3.42;;;24.30;21.70;;;;;;5062926;28;20048;-64
2023/08/24 12:27:53;;;;;;;6.28;2.95;;;24.40;10.10;;;;;;5043583;28;20044;-64
2023/08/24 12:30:19;;;;;;;4.82;2.45;;;24.50;12.00;;;;;;5061647;28;20463;-64
2023/08/24 12:32:47;;;;;;;3.55;2.78;;;24.60;10.30;;;;;;5046509;28;20119;-64
2023/08/24 12:35:16;;;;;;;7.63;3.08;;;24.70;6.20;;;;;;5050330;28;20056;-64
2023/08/24 12:37:42;;;;;;;8.45;3.20;;;24.70;2.90;;;;;;5063061;28;20087;-64
2023/08/24 12:40:08;;;;;;;6.68;2.92;;;24.70;1.00;;;;;;5068821;28;20072;-64
2023/08/24 12:42:34;;;;;;;5.90;3.17;;;24.70;2.30;;;;;;5066192;28;20438;-65
2023/08/24 12:45:00;;;;;;;12.27;3.30;;;24.70;1.00;;;;;;5051884;28;20033;-64
2023/08/24 12:47:26;;;;;;;5.30;3.05;;;24.70;1.00;;;;;;5068003;28;20060;-64
2023/08/24 12:49:52;;;;;;;9.23;3.10;;;24.60;1.00;;;;;;5070047;28;20044;-64